createdAt,value
2023-02-11T00:01:19.975Z,14.98
2023-02-11T00:03:46.524Z,15.13
2023-02-11T00:06:13.102Z,15.55
2023-02-11T00:08:39.688Z,15.35
2023-02-11T00:11:06.314Z,16.75
2023-02-11T00:13:32.773Z,16.50
2023-02-11T00:15:59.564Z,18.83
2023-02-11T00:18:26.045Z,14.27
2023-02-11T00:20:52.498Z,14.85
2023-02-11T00:23:19.068Z,13.15
2023-02-11T00:25:45.701Z,15.52
2023-02-11T00:28:12.648Z,15.68
2023-02-11T00:30:40.405Z,14.75
2023-02-11T00:33:08.015Z,16.58
2023-02-11T00:35:37.242Z,14.00
2023-02-11T00:38:03.859Z,15.98
2023-02-11T00:40:31.148Z,16.70
2023-02-11T00:42:57.571Z,12.75
2023-02-11T00:45:24.355Z,14.55
2023-02-11T00:47:50.801Z,12.95
2023-02-11T00:50:17.262Z,13.50
2023-02-11T00:52:43.771Z,12.40
2023-02-11T00:55:10.266Z,16.35
2023-02-11T00:57:36.961Z,13.82
2023-02-11T01:00:05.592Z,14.55
2023-02-11T01:02:32.053Z,15.05
2023-02-11T01:05:00.104Z,12.95
2023-02-11T01:07:27.885Z,14.05
2023-02-11T01:09:54.881Z,13.68
2023-02-11T01:12:21.425Z,14.00
2023-02-11T01:14:48.227Z,10.90
2023-02-11T01:17:14.756Z,13.23
2023-02-11T01:19:41.563Z,11.77
2023-02-11T01:22:08.025Z,13.52
2023-02-11T01:24:34.491Z,14.25
2023-02-11T01:27:00.964Z,11.93
2023-02-11T01:29:27.412Z,13.35
2023-02-11T01:31:54.510Z,13.65
2023-02-11T01:34:20.990Z,11.85
2023-02-11T01:36:47.453Z,13.13
2023-02-11T01:39:13.906Z,12.95
2023-02-11T01:41:40.407Z,15.35
2023-02-11T01:44:27.749Z,16.13
2023-02-11T01:46:54.668Z,14.05
2023-02-11T01:49:30.360Z,12.73
2023-02-11T01:52:09.334Z,12.00
2023-02-11T01:55:01.310Z,11.45
2023-02-11T01:57:32.325Z,12.05
2023-02-11T02:00:14.328Z,9.65
2023-02-11T02:03:08.012Z,11.60
2023-02-11T02:05:57.533Z,10.38
2023-02-11T02:08:38.939Z,12.20
2023-02-11T02:11:05.672Z,10.43
2023-02-11T02:13:34.296Z,11.65
2023-02-11T02:16:03.941Z,10.02
2023-02-11T02:19:03.226Z,10.13
2023-02-11T02:24:40.116Z,10.27
2023-02-11T02:27:23.893Z,12.13
2023-02-11T02:30:15.530Z,12.43
2023-02-11T02:32:54.105Z,13.65
2023-02-11T02:35:29.724Z,16.05
2023-02-11T02:38:03.005Z,12.80
2023-02-11T02:40:45.109Z,13.25
2023-02-11T02:43:13.711Z,12.00
2023-02-11T02:45:40.247Z,12.10
2023-02-11T02:48:06.947Z,12.90
2023-02-11T02:50:36.624Z,14.25
2023-02-11T02:53:40.800Z,10.60
2023-02-11T02:56:17.232Z,12.55
2023-02-11T03:01:33.173Z,10.50
2023-02-11T03:04:20.933Z,15.18
2023-02-11T03:07:22.300Z,13.00
2023-02-11T03:09:58.322Z,12.80
2023-02-11T03:12:27.752Z,15.70
2023-02-11T03:14:54.484Z,11.93
2023-02-11T03:17:22.808Z,13.52
2023-02-11T03:19:51.073Z,16.48
2023-02-11T03:22:24.311Z,13.60
2023-02-11T03:24:51.139Z,16.13
2023-02-11T03:27:30.146Z,12.95
2023-02-11T03:30:09.690Z,13.55
2023-02-11T03:32:49.775Z,11.52
2023-02-11T03:35:41.304Z,11.23
2023-02-11T03:38:15.825Z,12.80
2023-02-11T03:40:45.564Z,11.95
2023-02-11T03:43:18.108Z,14.65
2023-02-11T03:45:47.165Z,16.30
2023-02-11T03:48:13.630Z,13.02
2023-02-11T03:50:42.140Z,15.20
2023-02-11T03:53:10.271Z,12.00
2023-02-11T03:55:40.656Z,13.25
2023-02-11T03:58:08.279Z,13.70
2023-02-11T04:00:39.508Z,13.65
2023-02-11T04:03:06.963Z,14.32
2023-02-11T04:05:33.539Z,13.57
2023-02-11T04:08:00.009Z,13.48
2023-02-11T04:10:26.537Z,10.93
2023-02-11T04:12:53.102Z,10.18
2023-02-11T04:15:19.915Z,11.10
2023-02-11T04:17:46.370Z,10.82
2023-02-11T04:20:13.368Z,12.23
2023-02-11T04:22:39.871Z,14.07
2023-02-11T04:25:07.215Z,11.80
2023-02-11T04:27:33.886Z,13.80
2023-02-11T04:30:00.415Z,12.52
2023-02-11T04:32:26.885Z,16.65
2023-02-11T04:34:54.805Z,13.85
2023-02-11T04:37:21.448Z,11.35
2023-02-11T04:39:48.007Z,14.32
2023-02-11T04:42:14.504Z,14.13
2023-02-11T04:44:40.993Z,17.45
2023-02-11T04:47:07.455Z,13.43
2023-02-11T04:49:33.907Z,23.17
2023-02-11T04:52:00.352Z,16.67
2023-02-11T04:54:26.826Z,16.55
2023-02-11T04:56:53.349Z,18.55
2023-02-11T04:59:19.800Z,15.70
2023-02-11T05:01:46.286Z,18.45
2023-02-11T05:04:12.829Z,13.93
2023-02-11T05:06:39.837Z,15.77
2023-02-11T05:09:06.599Z,15.73
2023-02-11T05:11:33.189Z,15.55
2023-02-11T05:13:59.735Z,15.07
2023-02-11T05:16:26.206Z,16.48
2023-02-11T05:18:53.709Z,14.48
2023-02-11T05:21:20.439Z,15.90
2023-02-11T05:23:47.330Z,17.15
2023-02-11T05:26:14.298Z,13.70
2023-02-11T05:28:41.028Z,12.05
2023-02-11T05:31:08.182Z,13.88
2023-02-11T05:33:34.709Z,12.25
2023-02-11T05:36:07.002Z,15.38
2023-02-11T05:38:34.052Z,17.10
2023-02-11T05:41:01.217Z,14.10
2023-02-11T05:43:28.107Z,15.13
2023-02-11T05:45:54.911Z,16.23
2023-02-11T05:48:21.450Z,15.05
2023-02-11T05:50:47.907Z,18.48
2023-02-11T05:53:14.404Z,21.23
2023-02-11T05:55:40.979Z,21.27
2023-02-11T05:58:07.966Z,18.30
2023-02-11T06:00:35.116Z,16.45
2023-02-11T06:03:01.690Z,18.85
2023-02-11T06:05:28.206Z,15.20
2023-02-11T06:07:54.660Z,16.70
2023-02-11T06:10:21.517Z,15.63
2023-02-11T06:12:48.431Z,15.88
2023-02-11T06:15:14.910Z,18.25
2023-02-11T06:17:41.351Z,14.45
2023-02-11T06:20:10.048Z,17.02
2023-02-11T06:22:36.602Z,16.73
2023-02-11T06:25:03.307Z,18.50
2023-02-11T06:27:29.962Z,15.25
2023-02-11T06:29:56.452Z,18.00
2023-02-11T06:32:43.335Z,14.93
2023-02-11T06:35:11.954Z,20.77
2023-02-11T06:37:39.370Z,16.50
2023-02-11T06:40:06.322Z,16.95
2023-02-11T06:42:32.867Z,16.35
2023-02-11T06:44:59.336Z,17.63
2023-02-11T06:47:25.872Z,16.92
2023-02-11T06:49:52.329Z,23.90
2023-02-11T06:52:18.847Z,26.38
2023-02-11T06:54:45.282Z,24.58
2023-02-11T06:57:11.766Z,19.55
2023-02-11T06:59:38.223Z,17.90
2023-02-11T07:02:05.020Z,16.30
2023-02-11T07:04:31.536Z,16.60
2023-02-11T07:06:57.989Z,26.10
2023-02-11T07:09:24.439Z,17.67
2023-02-11T07:11:50.893Z,22.33
2023-02-11T07:14:17.450Z,18.13
2023-02-11T07:16:44.089Z,20.05
2023-02-11T07:19:10.833Z,19.15
2023-02-11T07:21:37.387Z,21.95
2023-02-11T07:24:10.789Z,17.92
2023-02-11T07:26:37.704Z,14.38
2023-02-11T07:29:04.204Z,26.48
2023-02-11T07:31:30.904Z,19.83
2023-02-11T07:34:00.212Z,16.27
2023-02-11T07:36:28.068Z,16.20
2023-02-11T07:38:54.553Z,18.25
2023-02-11T07:41:23.162Z,21.42
2023-02-11T07:43:50.241Z,18.92
2023-02-11T07:46:18.589Z,20.33
2023-02-11T07:48:45.123Z,23.50
2023-02-11T07:51:23.798Z,30.23
2023-02-11T07:53:51.862Z,22.50
2023-02-11T07:56:20.837Z,19.25
2023-02-11T07:58:47.652Z,23.63
2023-02-11T08:01:17.467Z,26.15
2023-02-11T08:03:44.399Z,37.53
2023-02-11T08:06:14.541Z,24.73
2023-02-11T08:08:41.849Z,20.40
2023-02-11T08:11:11.033Z,22.98
2023-02-11T08:13:37.567Z,37.25
2023-02-11T08:16:05.135Z,25.65
2023-02-11T08:18:33.049Z,21.92
2023-02-11T08:21:07.237Z,19.40
2023-02-11T08:23:36.075Z,21.85
2023-02-11T08:26:10.122Z,22.10
2023-02-11T08:28:38.915Z,23.08
2023-02-11T08:31:18.087Z,22.35
2023-02-11T08:33:44.958Z,22.15
2023-02-11T08:36:14.781Z,19.52
2023-02-11T08:38:41.914Z,18.95
2023-02-11T08:41:09.186Z,18.33
2023-02-11T08:43:36.778Z,20.25
2023-02-11T08:46:03.508Z,20.38
2023-02-11T08:48:30.181Z,20.27
2023-02-11T08:50:57.546Z,24.27
2023-02-11T08:53:24.918Z,20.63
2023-02-11T08:55:53.981Z,29.35
2023-02-11T08:58:21.875Z,25.45
2023-02-11T09:00:49.817Z,21.65
2023-02-11T09:03:16.825Z,21.15
2023-02-11T09:05:49.933Z,20.38
2023-02-11T09:08:16.958Z,21.27
2023-02-11T09:10:43.496Z,19.80
2023-02-11T09:13:10.258Z,19.13
2023-02-11T09:15:37.088Z,19.98
2023-02-11T09:18:04.884Z,18.85
2023-02-11T09:20:31.983Z,24.27
2023-02-11T09:22:59.216Z,20.23
2023-02-11T09:25:26.063Z,25.35
2023-02-11T09:27:53.730Z,28.83
2023-02-11T09:30:20.333Z,24.95
2023-02-11T09:32:46.797Z,22.25
2023-02-11T09:35:13.243Z,21.75
2023-02-11T09:37:39.690Z,25.20
2023-02-11T09:40:06.644Z,18.70
2023-02-11T09:42:42.089Z,20.13
2023-02-11T09:45:19.699Z,19.38
2023-02-11T09:47:54.301Z,19.17
2023-02-11T09:50:36.559Z,13.73
2023-02-11T09:53:24.083Z,13.77
2023-02-11T09:55:59.736Z,14.73
2023-02-11T09:58:33.153Z,18.90
2023-02-11T10:01:25.153Z,15.18
2023-02-11T10:03:54.499Z,16.58
2023-02-11T10:06:32.939Z,16.88
2023-02-11T10:09:26.316Z,15.57
2023-02-11T10:12:10.849Z,18.25
2023-02-11T10:15:00.783Z,18.02
2023-02-11T10:17:58.116Z,15.02
2023-02-11T10:20:36.549Z,18.90
2023-02-11T10:23:13.469Z,12.45
2023-02-11T10:25:48.081Z,9.52
2023-02-11T10:28:20.640Z,10.80
2023-02-11T10:31:01.545Z,11.05
2023-02-11T10:33:33.049Z,9.55
2023-02-11T10:35:59.978Z,9.82
2023-02-11T10:38:27.820Z,9.40
2023-02-11T10:40:54.309Z,8.35
2023-02-11T10:43:26.764Z,12.90
2023-02-11T10:45:55.890Z,10.43
2023-02-11T10:48:44.041Z,14.43
2023-02-11T10:51:12.264Z,9.52
2023-02-11T10:53:39.869Z,11.70
2023-02-11T10:56:10.501Z,10.70
2023-02-11T10:58:45.304Z,9.90
2023-02-11T11:01:23.895Z,9.23
2023-02-11T11:03:52.691Z,10.35
2023-02-11T11:06:31.301Z,10.63
2023-02-11T11:08:58.173Z,5.85
2023-02-11T11:11:26.213Z,8.45
2023-02-11T11:13:52.688Z,9.23
2023-02-11T11:16:22.114Z,9.45
2023-02-11T11:18:51.130Z,6.03
2023-02-11T11:21:26.430Z,6.10
2023-02-11T11:24:01.201Z,6.95
2023-02-11T11:26:43.848Z,6.88
2023-02-11T11:29:17.793Z,9.15
2023-02-11T11:31:55.190Z,5.00
2023-02-11T11:34:40.567Z,5.65
2023-02-11T11:37:11.734Z,4.78
2023-02-11T11:39:39.781Z,4.65
2023-02-11T11:42:25.825Z,8.63
2023-02-11T11:45:23.111Z,8.23
2023-02-11T11:50:36.810Z,12.68
2023-02-11T11:53:20.813Z,6.70
2023-02-11T11:56:00.992Z,7.47
2023-02-11T11:58:29.863Z,7.97
2023-02-11T12:01:05.583Z,9.55
2023-02-11T12:04:09.393Z,8.43
2023-02-11T12:06:54.634Z,6.65
2023-02-11T12:09:39.492Z,6.18
2023-02-11T12:12:40.164Z,7.38
2023-02-11T12:15:29.723Z,6.07
2023-02-11T12:18:25.567Z,5.18
2023-02-11T12:21:03.192Z,6.55
2023-02-11T12:23:47.946Z,5.10
2023-02-11T12:26:32.912Z,6.32
2023-02-11T12:29:20.433Z,6.65
2023-02-11T12:32:14.890Z,9.80
2023-02-11T12:35:07.009Z,5.18
2023-02-11T12:37:48.698Z,5.43
2023-02-11T12:40:43.826Z,5.75
2023-02-11T12:43:23.503Z,4.20
2023-02-11T12:46:09.837Z,5.20
2023-02-11T12:48:45.500Z,5.10
2023-02-11T12:51:34.373Z,5.78
2023-02-11T12:54:14.180Z,4.00
2023-02-11T12:56:52.820Z,5.03
2023-02-11T12:59:43.795Z,3.95
2023-02-11T13:02:41.619Z,3.17
2023-02-11T13:05:22.500Z,3.75
2023-02-11T13:07:51.906Z,4.10
2023-02-11T13:10:24.513Z,3.45
2023-02-11T13:13:11.312Z,3.65
2023-02-11T13:18:22.274Z,5.63
2023-02-11T13:21:04.576Z,6.63
2023-02-11T13:23:42.990Z,4.70
2023-02-11T13:26:41.127Z,5.35
2023-02-11T13:29:25.351Z,3.63
2023-02-11T13:31:55.629Z,4.18
2023-02-11T13:34:45.152Z,3.67
2023-02-11T13:37:22.490Z,2.92
2023-02-11T13:40:03.023Z,1.52
2023-02-11T13:42:30.995Z,2.15
2023-02-11T13:44:58.039Z,2.00
2023-02-11T13:47:31.280Z,2.30
2023-02-11T13:49:59.356Z,1.13
2023-02-11T13:52:29.589Z,1.55
2023-02-11T13:55:02.915Z,2.40
2023-02-11T13:57:34.924Z,2.78
2023-02-11T14:00:26.595Z,2.17
2023-02-11T14:03:30.198Z,1.73
2023-02-11T14:06:27.431Z,1.63
2023-02-11T14:09:09.466Z,1.90
2023-02-11T14:11:55.326Z,2.55
2023-02-11T14:14:33.512Z,3.00
2023-02-11T14:17:00.224Z,2.03
2023-02-11T14:19:34.939Z,3.63
2023-02-11T14:22:03.161Z,3.13
2023-02-11T14:24:30.947Z,1.65
2023-02-11T14:27:15.379Z,1.90
2023-02-11T14:30:20.523Z,2.13
2023-02-11T14:33:11.772Z,1.50
2023-02-11T14:35:48.577Z,2.85
2023-02-11T14:38:51.841Z,2.00
2023-02-11T14:41:27.518Z,2.10
2023-02-11T14:43:59.397Z,3.35
2023-02-11T14:46:27.811Z,2.50
2023-02-11T14:48:57.566Z,2.33
2023-02-11T14:51:44.120Z,2.38
2023-02-11T14:54:19.569Z,3.13
2023-02-11T14:56:46.795Z,2.92
2023-02-11T14:59:19.744Z,1.63
2023-02-11T15:01:50.268Z,1.90
2023-02-11T15:04:31.925Z,1.73
2023-02-11T15:07:04.906Z,3.05
2023-02-11T15:09:38.205Z,2.88
2023-02-11T15:12:05.101Z,4.78
2023-02-11T15:14:33.797Z,3.65
2023-02-11T15:17:07.975Z,3.30
2023-02-11T15:19:38.439Z,2.72
2023-02-11T15:22:07.345Z,5.75
2023-02-11T15:24:35.654Z,2.78
2023-02-11T15:27:08.078Z,3.80
2023-02-11T15:29:37.754Z,3.17
2023-02-11T15:32:13.560Z,3.05
2023-02-11T15:34:40.524Z,5.18
2023-02-11T15:37:07.371Z,4.30
2023-02-11T15:39:37.909Z,5.53
2023-02-11T15:42:17.487Z,4.03
2023-02-11T15:44:44.090Z,3.88
2023-02-11T15:47:18.929Z,3.67
2023-02-11T15:49:46.876Z,5.47
2023-02-11T15:52:25.621Z,5.43
2023-02-11T15:54:53.650Z,6.15
2023-02-11T15:57:22.914Z,6.70
2023-02-11T15:59:52.838Z,5.28
2023-02-11T16:02:25.332Z,9.10
2023-02-11T16:04:57.471Z,6.05
2023-02-11T16:07:40.604Z,5.95
2023-02-11T16:10:24.229Z,5.88
2023-02-11T16:13:06.564Z,7.40
2023-02-11T16:15:50.604Z,8.07
2023-02-11T16:18:34.035Z,6.68
2023-02-11T16:23:35.352Z,7.55
2023-02-11T16:26:08.733Z,7.65
2023-02-11T16:28:37.309Z,8.05
2023-02-11T16:31:04.903Z,6.60
2023-02-11T16:33:31.557Z,8.20
2023-02-11T16:36:01.990Z,8.57
2023-02-11T16:38:29.381Z,7.70
2023-02-11T16:40:55.861Z,6.88
2023-02-11T16:43:22.320Z,7.97
2023-02-11T16:45:48.992Z,5.65
2023-02-11T16:48:19.176Z,5.93
2023-02-11T16:50:51.360Z,8.25
2023-02-11T16:53:23.443Z,9.32
2023-02-11T16:55:51.224Z,7.25
2023-02-11T16:58:18.101Z,8.57
2023-02-11T17:00:47.012Z,6.53
2023-02-11T17:03:28.194Z,9.60
2023-02-11T17:05:56.262Z,8.43
2023-02-11T17:08:22.786Z,6.70
2023-02-11T17:10:49.687Z,5.85
2023-02-11T17:13:16.429Z,7.22
2023-02-11T17:15:42.918Z,9.65
2023-02-11T17:18:13.318Z,7.65
2023-02-11T17:20:40.404Z,9.48
2023-02-11T17:23:07.238Z,9.20
2023-02-11T17:25:33.728Z,8.52
2023-02-11T17:28:00.241Z,7.20
2023-02-11T17:30:26.713Z,7.70
2023-02-11T17:32:53.174Z,7.38
2023-02-11T17:35:19.614Z,8.40
2023-02-11T17:37:46.109Z,9.93
2023-02-11T17:40:13.795Z,9.95
2023-02-11T17:42:40.328Z,10.13
2023-02-11T17:45:08.524Z,9.82
2023-02-11T17:47:35.485Z,14.23
2023-02-11T17:50:03.115Z,8.35
2023-02-11T17:52:29.668Z,7.38
2023-02-11T17:54:56.298Z,9.82
2023-02-11T17:57:22.757Z,11.95
2023-02-11T17:59:49.223Z,10.77
2023-02-11T18:02:15.724Z,10.30
2023-02-11T18:04:42.273Z,10.93
2023-02-11T18:07:08.789Z,9.63
2023-02-11T18:09:40.376Z,13.75
2023-02-11T18:12:08.018Z,29.00
2023-02-11T18:14:34.648Z,17.02
2023-02-11T18:17:01.255Z,10.98
2023-02-11T18:19:30.549Z,11.15
2023-02-11T18:22:00.792Z,10.23
2023-02-11T18:24:27.524Z,10.85
2023-02-11T18:26:53.953Z,12.48
2023-02-11T18:29:20.480Z,9.57
2023-02-11T18:31:47.015Z,7.28
2023-02-11T18:34:13.542Z,10.82
2023-02-11T18:36:40.007Z,9.98
2023-02-11T18:39:06.517Z,11.50
2023-02-11T18:41:33.175Z,10.57
2023-02-11T18:44:02.783Z,11.60
2023-02-11T18:46:29.727Z,12.63
2023-02-11T18:48:56.447Z,11.55
2023-02-11T18:51:23.619Z,9.75
2023-02-11T18:53:50.147Z,10.35
2023-02-11T18:56:20.642Z,11.00
2023-02-11T18:58:47.772Z,10.93
2023-02-11T19:01:27.312Z,8.88
2023-02-11T19:03:56.293Z,8.63
2023-02-11T19:06:33.307Z,7.85
2023-02-11T19:09:01.967Z,8.88
2023-02-11T19:11:48.979Z,9.15
2023-02-11T19:14:18.236Z,9.23
2023-02-11T19:16:46.332Z,14.27
2023-02-11T19:19:13.773Z,15.57
2023-02-11T19:21:43.450Z,10.27
2023-02-11T19:24:10.931Z,8.45
2023-02-11T19:26:37.716Z,10.15
2023-02-11T19:29:05.991Z,12.15
2023-02-11T19:31:32.832Z,8.93
2023-02-11T19:34:00.476Z,13.02
2023-02-11T19:36:27.266Z,13.90
2023-02-11T19:38:53.997Z,8.63
2023-02-11T19:41:22.458Z,7.45
2023-02-11T19:43:52.800Z,7.65
2023-02-11T19:46:20.987Z,9.82
2023-02-11T19:48:48.860Z,8.65
2023-02-11T19:51:15.931Z,7.72
2023-02-11T19:53:44.515Z,10.82
2023-02-11T19:56:13.290Z,11.50
2023-02-11T19:58:40.205Z,14.95
2023-02-11T20:01:09.664Z,17.20
2023-02-11T20:03:36.720Z,25.23
2023-02-11T20:06:13.080Z,15.52
2023-02-11T20:08:39.967Z,11.23
2023-02-11T20:11:12.436Z,14.18
2023-02-11T20:13:39.720Z,12.05
2023-02-11T20:16:09.323Z,21.85
2023-02-11T20:18:36.651Z,9.38
2023-02-11T20:21:18.889Z,9.52
2023-02-11T20:23:46.594Z,9.65
2023-02-11T20:26:27.805Z,8.73
2023-02-11T20:28:55.499Z,7.22
2023-02-11T20:31:23.098Z,7.32
2023-02-11T20:33:49.945Z,7.10
2023-02-11T20:36:20.308Z,8.82
2023-02-11T20:38:46.845Z,7.78
2023-02-11T20:41:20.168Z,7.28
2023-02-11T20:43:49.537Z,9.10
2023-02-11T20:46:17.360Z,8.35
2023-02-11T20:48:43.882Z,9.48
2023-02-11T20:51:12.781Z,7.93
2023-02-11T20:53:41.647Z,10.18
2023-02-11T20:56:11.269Z,8.07
2023-02-11T20:58:38.975Z,8.27
2023-02-11T21:01:16.614Z,7.13
2023-02-11T21:03:53.749Z,7.22
2023-02-11T21:06:21.660Z,10.82
2023-02-11T21:08:48.128Z,10.18
2023-02-11T21:11:15.065Z,11.77
2023-02-11T21:13:42.650Z,14.18
2023-02-11T21:16:13.482Z,13.80
2023-02-11T21:18:40.008Z,11.32
2023-02-11T21:21:07.106Z,11.98
2023-02-11T21:23:33.664Z,10.20
2023-02-11T21:26:00.141Z,9.85
2023-02-11T21:28:26.718Z,9.32
2023-02-11T21:30:54.747Z,9.73
2023-02-11T21:33:22.409Z,8.82
2023-02-11T21:35:49.005Z,6.95
2023-02-11T21:38:16.098Z,10.00
2023-02-11T21:40:42.597Z,9.23
2023-02-11T21:43:09.056Z,13.85
2023-02-11T21:45:35.632Z,15.50
2023-02-11T21:48:02.157Z,13.02
2023-02-11T21:50:28.600Z,12.63
2023-02-11T21:52:55.246Z,9.70
2023-02-11T21:55:21.705Z,9.65
2023-02-11T21:57:48.166Z,10.00
2023-02-11T22:00:15.298Z,10.07
2023-02-11T22:02:42.384Z,8.98
2023-02-11T22:05:08.959Z,11.50
2023-02-11T22:07:36.447Z,10.55
2023-02-11T22:10:03.966Z,12.77
2023-02-11T22:12:30.724Z,11.55
2023-02-11T22:14:57.196Z,11.07
2023-02-11T22:17:23.745Z,12.82
2023-02-11T22:19:50.191Z,11.57
2023-02-11T22:22:18.324Z,9.73
2023-02-11T22:24:48.433Z,10.82
2023-02-11T22:27:19.897Z,9.30
2023-02-11T22:29:46.767Z,9.73
2023-02-11T22:32:13.439Z,13.73
2023-02-11T22:34:40.086Z,10.65
2023-02-11T22:37:07.499Z,12.55
2023-02-11T22:39:34.155Z,11.40
2023-02-11T22:42:00.656Z,9.65
2023-02-11T22:44:27.172Z,9.98
2023-02-11T22:46:54.139Z,10.75
2023-02-11T22:49:21.609Z,13.70
2023-02-11T22:51:48.810Z,20.75
2023-02-11T22:54:17.761Z,14.35
2023-02-11T22:56:45.212Z,14.85
2023-02-11T22:59:14.401Z,13.45
2023-02-11T23:01:42.099Z,12.07
2023-02-11T23:04:12.087Z,23.13
2023-02-11T23:06:38.938Z,16.83
2023-02-11T23:09:10.092Z,15.30
2023-02-11T23:11:36.610Z,12.88
2023-02-11T23:14:03.860Z,11.57
2023-02-11T23:16:33.592Z,12.50
2023-02-11T23:19:02.153Z,13.13
2023-02-11T23:21:31.217Z,12.07
2023-02-11T23:24:04.208Z,11.77
2023-02-11T23:26:31.101Z,14.80
2023-02-11T23:28:59.198Z,12.70
2023-02-11T23:31:37.437Z,12.25
2023-02-11T23:34:04.467Z,12.27
2023-02-11T23:36:31.538Z,14.98
2023-02-11T23:38:58.679Z,18.88
2023-02-11T23:41:25.727Z,15.77
2023-02-11T23:43:54.639Z,16.60
2023-02-11T23:46:24.371Z,18.15
2023-02-11T23:48:51.661Z,16.90
2023-02-11T23:51:19.207Z,15.10
2023-02-11T23:53:46.231Z,12.75
2023-02-11T23:56:25.788Z,13.63
2023-02-11T23:58:54.676Z,15.10
